エドモントン の空港の天気 - METARとTAF

エドモントン国際空港 ( CYEG / YEG ) - カナダ アルバータ州Edmonton Capital Region
飛行場実況気象(Metar)
観測時間07/28 21:00 MDT (07/29 03:00 UTC)
風向・風速東南東 2m/s
視程10km以上
天気現象
少しの雲 雲底高度 6710m
気温21℃
湿度73%
気圧1018.8hPa
METARCYEG 290300Z 11004KT 20SM FEW220 21/16 A3009 RMK CI2 SLP188 DENSITY ALT 3500FT
過去の天気等 Google飛行場航空写真 Wunderground天気予報

過去48時間のMETAR

飛行場予報(TAF)
発表時間: 7/28 20:38 MDT (7/29 02:38 UTC)
予報対象時間: 28日21時 MDT ~ 29日18時 MDT
風向・風速南南東 3m/s
視程10km以上
少しの雲 雲底高度 6710m
29日1時 MDT から
風向・風速東南東 2m/s
視程10km以上
全天の4割程度の雲 雲底高度 3350m
29日1時 MDT ~ 29日4時 MDT に一時的に
風向・風速不定 8m/s 瞬間風速 13m/s
視程10km以上
天気現象周辺で雷
全天の4割程度の積乱雲 雲底高度 2740m
29日5時 MDT から
風向・風速不定 2m/s
視程10km以上
少しの雲 雲底高度 3350m
29日5時 MDT から 確率 30% で
視程800m
天気現象
29日9時 MDT から
風向・風速北西 2m/s
視程10km以上
なし
29日10時 MDT ~ 29日12時 MDT に徐々に
風向・風速北 4m/s
29日15時 MDT から
風向・風速北北東 4m/s
視程10km以上
全天の4割程度の雲 雲底高度 1830m
TAF CYEG 290238Z 2903/2924 16005KT P6SM FEW220
FM290700 12004KT P6SM SCT110
TEMPO 2907/2910 VRB15G25KT P6SM VCTS SCT090CB
FM291100 VRB03KT P6SM FEW110
PROB30 2911/2913 1/2SM FG
FM291500 32004KT P6SM SKC
BECMG 2916/2918 35008KT
FM292100 03008KT P6SM SCT060 RMK NXT FCST BY 290600Z